Flight Track Log - Related Links

Times and Time Zones

All times are in EST time to prevent confusion due to time zone crossing. See the UPS1057 flight status page for this flight to view local times or setup timezone preferences in your user account.

Time Position Orientation Groundspeed Altitude Reporting Facility
EST Latitude Longitude Course Direction KTS MPH feet Rate Location/Type
Fri 11:23:15 PM 42.9428 -71.4398 336° Northwest 159 183 500  Level FlightAware ADS-B
Fri 11:23:35 PM 42.9574 -71.4486 336° Northwest 162 186 1,700 2,550 Climbing FlightAware ADS-B
Fri 11:23:55 PM 42.9735 -71.4574 339° North 205 236 2,200 1,650 Climbing FlightAware ADS-B
Fri 11:24:15 PM 42.9930 -71.4680 338° Northwest 246 283 2,800 2,550 Climbing FlightAware ADS-B
Fri 11:24:35 PM 43.0132 -71.4819 315° West 250 288 3,900 3,400 Climbing FlightAware ADS-B
Fri 11:24:45 PM 43.0208 -71.4942 305° West 252 290 4,500 4,080 Climbing FlightAware ADS-B
Fri 11:25:00 PM 43.0314 -71.5136 308° West 258 297 5,600 4,400 Climbing FlightAware ADS-B (EPKK / KRK)
Fri 11:25:15 PM 43.0431 -71.5339 309° West 257 296 6,700 4,400 Climbing FlightAware ADS-B
Fri 11:25:30 PM 43.0535 -71.5521 301° West 256 295 7,800 4,200 Climbing FlightAware ADS-B (EPKK / KRK)
Fri 11:25:35 PM 43.0566 -71.5606 293° West 255 293 8,100 4,000 Climbing FlightAware ADS-B
Fri 11:25:45 PM 43.0592 -71.5760 274° West 252 290 8,800 3,300 Climbing FlightAware ADS-B
Fri 11:26:15 PM 43.0583 -71.6226 269° West 268 308 10,300 2,149 Climbing FlightAware ADS-B
Fri 11:26:52 PM 43.0523 -71.6731 252° West 311 358 11,200 2,239 Climbing FlightAware ADS-B (EPKK / KRK)
Fri 11:27:22 PM 43.0327 -71.7509 250° West 332 382 12,800 3,200 Climbing FlightAware ADS-B
Fri 11:27:52 PM 43.0170 -71.8108 251° West 338 389 14,400 2,700 Climbing FlightAware ADS-B
Fri 11:28:22 PM 43.0014 -71.8701 251° West 350 403 15,500 1,200 Climbing FlightAware ADS-B
Fri 11:28:52 PM 42.9852 -71.9354 251° West 354 407 15,600 200 Climbing FlightAware ADS-B
Fri 11:29:22 PM 42.9690 -71.9983 251° West 351 404 15,700 1,543 Climbing FlightAware ADS-B
Fri 11:30:02 PM 42.9478 -72.0824 251° West 354 407 17,400 2,571 Climbing FlightAware ADS-B
Fri 11:30:32 PM 42.9316 -72.1440 252° West 359 413 18,700 2,486 Climbing FlightAware ADS-B
Fri 11:31:12 PM 42.9090 -72.2333 252° West 368 423 20,300 2,400 Climbing FlightAware ADS-B
Fri 11:31:42 PM 42.8919 -72.2976 252° West 374 430 21,500 2,314 Climbing FlightAware ADS-B
Fri 11:32:22 PM 42.8682 -72.3905 251° West 386 444 23,000 2,229 Climbing FlightAware ADS-B
Fri 11:32:52 PM 42.8505 -72.4573 251° West 388 447 24,100 2,149 Climbing FlightAware ADS-B
Fri 11:33:29 PM 42.8282 -72.5430 251° West 393 452 25,400 2,000 Climbing FlightAware ADS-B
Fri 11:34:01 PM 42.8084 -72.6200 251° West 397 457 26,400 1,808 Climbing FlightAware ADS-B
Fri 11:34:42 PM 42.7831 -72.7172 252° West 400 460 27,600 1,792 Climbing FlightAware ADS-B
Fri 11:35:18 PM 42.7604 -72.8031 251° West 401 461 28,700 1,900 Climbing FlightAware ADS-B
Fri 11:35:42 PM 42.7450 -72.8600 251° West 403 464 29,500 2,000 Climbing FlightAware ADS-B
Fri 11:35:48 PM 42.7414 -72.8746 251° West 399 459 29,700 2,000 Climbing FlightAware ADS-B
Fri 11:36:36 PM 42.7120 -72.9850 251° West 394 453 31,300 1,747 Climbing FlightAware ADS-B
Fri 11:37:07 PM 42.6926 -73.0566 250° West 395 455 32,000 894 Climbing FlightAware ADS-B
Fri 11:37:23 PM 42.6820 -73.0960 250° West 396 456 32,000  Level FlightAware ADS-B
Fri 11:37:54 PM 42.6634 -73.1660 250° West 393 452 32,000  Level FlightAware ADS-B
Fri 11:38:49 PM 42.6300 -73.2920 250° West 388 447 32,000  Level FlightAware ADS-B
Fri 11:39:44 PM 42.5981 -73.4110 253° West 385 443 32,000  Level FlightAware ADS-B (KSNC)
Fri 11:40:37 PM 42.5772 -73.5035 253° West 386 444 32,000  Level FlightAware ADS-B (KSNC)
Fri 11:43:56 PM 42.4735 -73.9735 253° West 391 450 32,000  Level FlightAware ADS-B (KSNC)
Fri 11:44:40 PM 42.4424 -74.1115 253° West 390 449 32,000  Level FlightAware ADS-B (KSNC)
Fri 11:46:57 PM 42.3697 -74.4343 253° West 393 452 32,000  Level FlightAware ADS-B (KWWD)
Fri 11:47:31 PM 42.3525 -74.5094 253° West 393 452 32,000  Level FlightAware ADS-B (EPGD / GDN)
Fri 11:48:06 PM 42.3328 -74.5936 253° West 393 452 32,000  Level FlightAware ADS-B (KWWD)
Fri 11:48:37 PM 42.3160 -74.6662 253° West 393 452 32,000  Level FlightAware ADS-B (KWWD)
Fri 11:49:19 PM 42.2932 -74.7666 253° West 393 452 32,000  Level FlightAware ADS-B (KWWD)
Fri 11:49:56 PM 42.2730 -74.8529 253° West 392 451 32,000  Level FlightAware ADS-B (KWWD)
Fri 11:50:29 PM 42.2554 -74.9277 253° West 393 452 32,000  Level FlightAware ADS-B (KWWD)
Fri 11:51:08 PM 42.2338 -75.0212 254° West 390 449 32,000  Level FlightAware ADS-B (KWWD)
Fri 11:51:38 PM 42.2173 -75.0912 254° West 391 450 32,000  Level FlightAware ADS-B (KWWD)
Fri 11:51:50 PM 42.2105 -75.1191 253° West 393 452 32,000  Level FlightAware ADS-B (KWWD)
Fri 11:51:56 PM 42.2173 -75.0912 253° West 393 452 32,000  Level FlightAware ADS-B (EPGD / GDN)
Fri 11:52:44 PM 42.1845 -75.2291 253° West 393 452 32,000  Level FlightAware ADS-B (EPGD / GDN)
Fri 11:52:53 PM 42.1759 -75.2667 254° West 392 451 32,000  Level FlightAware ADS-B (KWWD)
Fri 11:53:35 PM 42.1528 -75.3650 254° West 393 452 32,000  Level FlightAware ADS-B (KWWD)
Fri 11:54:05 PM 42.1381 -75.4261 253° West 394 453 32,000  Level FlightAware ADS-B
Fri 11:54:38 PM 42.1174 -75.5127 253° West 395 455 32,000  Level FlightAware ADS-B (KWWD)
Fri 11:55:13 PM 42.0978 -75.5928 253° West 396 456 32,000  Level FlightAware ADS-B (KWWD)
Fri 11:55:50 PM 42.0775 -75.6777 253° West 396 456 32,000  Level FlightAware ADS-B (KWWD)
Fri 11:56:20 PM 42.0594 -75.7531 253° West 396 456 32,000  Level FlightAware ADS-B (KWWD)
Fri 11:56:58 PM 42.0378 -75.8426 253° West 397 457 32,000  Level FlightAware ADS-B (KWWD)
Fri 11:59:42 PM 41.9424 -76.2308 253° West 400 460 32,000  Level FlightAware ADS-B (KWWD)
Sat 12:00:04 AM 41.9309 -76.2781 252° West 402 463 32,000  Level FlightAware ADS-B (EPLB / LUZ)
Sat 12:00:36 AM 41.9109 -76.3586 253° West 399 459 32,000  Level FlightAware ADS-B (KWWD)
Sat 12:01:10 AM 41.8910 -76.4387 252° West 402 463 32,000  Level FlightAware ADS-B (KWWD)
Sat 12:01:41 AM 41.8728 -76.5119 251° West 402 463 32,000  Level FlightAware ADS-B (KWWD)
Sat 12:02:21 AM 41.8489 -76.6067 252° West 404 465 32,000  Level FlightAware ADS-B (KWWD)
Sat 12:03:02 AM 41.8260 -76.6969 251° West 404 465 32,000  Level FlightAware ADS-B
Sat 12:03:40 AM 41.8029 -76.7893 251° West 405 466 32,000  Level FlightAware ADS-B (EPGD / GDN)
Sat 12:03:59 AM 41.7916 -76.8321 252° West 405 466 32,000  Level FlightAware ADS-B (CYYZ)
Sat 12:04:21 AM 41.7772 -76.8890 251° West 404 465 32,000  Level FlightAware ADS-B (KWWD)
Sat 12:04:28 AM 41.7810 -76.8747 252° West 405 466 32,000  Level FlightAware ADS-B (CYYZ)
Sat 12:04:51 AM 41.7590 -76.9623 251° West 403 464 32,000  Level FlightAware ADS-B (KWWD)
Sat 12:05:00 AM 41.7552 -76.9763 252° West 403 464 32,000  Level FlightAware ADS-B (CYYZ)
Sat 12:05:21 AM 41.7412 -77.0306 251° West 402 463 32,000  Level FlightAware ADS-B (KWWD)
Sat 12:06:00 AM 41.7177 -77.1223 251° West 402 463 32,000  Level FlightAware ADS-B (KWWD)
Sat 12:06:31 AM 41.6989 -77.1952 251° West 403 464 32,000  Level FlightAware ADS-B (KWWD)
Sat 12:07:11 AM 41.6747 -77.2894 251° West 403 464 32,000  Level FlightAware ADS-B (KWWD)
Sat 12:07:41 AM 41.6560 -77.3623 251° West 403 464 32,000  Level FlightAware ADS-B (KWWD)
Sat 12:08:11 AM 41.6379 -77.4305 251° West 403 464 32,000  Level FlightAware ADS-B (KWWD)
Sat 12:08:41 AM 41.6193 -77.5035 251° West 404 465 32,000  Level FlightAware ADS-B (KWWD)
Sat 12:09:11 AM 41.6010 -77.5720 251° West 405 466 32,000  Level FlightAware ADS-B (KWWD)
Sat 12:09:24 AM 41.5945 -77.5979 251° West 405 466 32,000  Level FlightAware ADS-B (CYYZ)
Sat 12:09:41 AM 41.5824 -77.6450 251° West 405 466 32,000  Level FlightAware ADS-B (KWWD)
Sat 12:09:54 AM 41.5755 -77.6708 251° West 405 466 32,000  Level FlightAware ADS-B (CYYZ)
Sat 12:10:11 AM 41.5628 -77.7153 248° West 403 464 32,000  Level FlightAware ADS-B (KWWD)
Sat 12:10:40 AM 41.5430 -77.7751 247° West 407 468 32,000  Level FlightAware ADS-B (CYYZ)
Sat 12:10:41 AM 41.5402 -77.7842 246° West 407 468 32,000  Level FlightAware ADS-B (KWWD)
Sat 12:11:09 AM 41.5203 -77.8441 247° West 408 470 32,000  Level FlightAware ADS-B (CYYZ)
Sat 12:11:21 AM 41.5101 -77.8763 246° West 407 468 32,000  Level FlightAware ADS-B (KWWD)
Sat 12:11:39 AM 41.4976 -77.9153 247° West 408 470 32,000  Level FlightAware ADS-B (CYYZ)
Sat 12:11:51 AM 41.4874 -77.9453 247° West 409 471 32,000  Level FlightAware ADS-B (KWWD)
Sat 12:12:09 AM 41.4788 -77.9708 247° West 409 471 32,000  Level FlightAware ADS-B (CYYZ)
Sat 12:12:32 AM 41.4569 -78.0400 247° West 409 471 32,000  Level FlightAware ADS-B (KWWD)
Sat 12:12:39 AM 41.4535 -78.0493 247° West 410 472 32,000  Level FlightAware ADS-B (CYYZ)
Sat 12:13:09 AM 41.4305 -78.1210 247° West 410 472 32,000  Level FlightAware ADS-B (CYYZ)
Sat 12:13:12 AM 41.4270 -78.1303 247° West 409 471 32,000  Level FlightAware ADS-B (KWWD)
Sat 12:13:40 AM 41.4237 -78.1419 247° West 411 473 32,000  Level FlightAware ADS-B (CYYZ)
Sat 12:14:09 AM 41.3877 -78.2507 247° West 411 473 32,000  Level FlightAware ADS-B (CYYZ)
Sat 12:14:38 AM 41.3662 -78.3178 247° West 411 473 32,000  Level FlightAware ADS-B (CYYZ)
Sat 12:15:10 AM 41.3468 -78.3754 247° West 411 473 32,000  Level FlightAware ADS-B (CYYZ)
Sat 12:16:39 AM 41.2768 -78.5877 247° West 411 473 32,000  Level FlightAware ADS-B (CYYZ)
Sat 12:17:09 AM 41.2471 -78.6776 247° West 411 473 32,000  Level FlightAware ADS-B (CYYZ)
Sat 12:17:39 AM 41.2242 -78.7467 247° West 412 474 32,000  Level FlightAware ADS-B (CYYZ)
Sat 12:18:09 AM 41.2018 -78.8135 246° West 412 474 32,000  Level FlightAware ADS-B (CYYZ)
Sat 12:18:39 AM 41.1780 -78.8851 247° West 413 475 32,000  Level FlightAware ADS-B (CYYZ)
Sat 12:19:09 AM 41.1552 -78.9522 247° West 414 476 32,000  Level FlightAware ADS-B (CYYZ)
Sat 12:19:11 AM 41.1533 -78.9570 246° West 413 475 32,000  Level FlightAware ADS-B (EPLB / LUZ)
Sat 12:19:37 AM 41.1356 -79.0101 246° West 414 476 32,000  Level FlightAware ADS-B (CYYZ)
Sat 12:19:55 AM 41.1193 -79.0587 246° West 413 475 32,000  Level FlightAware ADS-B (EPLB / LUZ)
Sat 12:20:28 AM 41.0936 -79.1346 246° West 412 474 32,000  Level FlightAware ADS-B (EPLB / LUZ)
Sat 12:21:09 AM 41.0641 -79.2220 246° West 413 475 32,000  Level FlightAware ADS-B (CYYZ)
Sat 12:22:06 AM 41.0198 -79.3530 246° West 412 474 32,000  Level FlightAware ADS-B (CYYZ)
Sat 12:22:39 AM 40.9911 -79.4357 246° West 413 475 32,000  Level FlightAware ADS-B (CYYZ)
Sat 12:23:09 AM 40.9674 -79.5046 246° West 413 475 32,000  Level FlightAware ADS-B (CYYZ)
Sat 12:23:40 AM 40.9430 -79.5755 246° West 413 475 32,000  Level FlightAware ADS-B (CYYZ)
Sat 12:23:54 AM 40.9406 -79.5825 246° West 412 474 32,000  Level FlightAware ADS-B (EPLB / LUZ)
Sat 12:24:09 AM 40.9204 -79.6419 246° West 412 474 32,000  Level FlightAware ADS-B (CYYZ)
Sat 12:24:39 AM 40.8967 -79.7107 246° West 413 475 32,000  Level FlightAware ADS-B (CYYZ)
Sat 12:24:56 AM 40.8835 -79.7495 246° West 412 474 32,000  Level FlightAware ADS-B (EPLB / LUZ)
Sat 12:25:10 AM 40.8725 -79.7814 246° West 412 474 32,000  Level FlightAware ADS-B (CYYZ)
Sat 12:25:26 AM 40.8637 -79.8065 246° West 412 474 32,000  Level FlightAware ADS-B (CYYZ)
Sat 12:26:09 AM 40.8330 -79.8932 246° West 412 474 32,000  Level FlightAware ADS-B (CYYZ)
Sat 12:27:19 AM 40.7710 -80.0717 245° Southwest 413 475 32,000  Level FlightAware ADS-B
Sat 12:28:20 AM 40.7202 -80.2174 245° Southwest 412 474 32,000  Level FlightAware ADS-B
Sat 12:29:00 AM 40.6886 -80.3063 245° Southwest 412 474 32,000  Level FlightAware ADS-B
Sat 12:29:37 AM 40.6588 -80.3904 245° Southwest 413 475 32,000  Level FlightAware ADS-B
Sat 12:30:09 AM 40.6326 -80.4654 245° Southwest 413 475 32,000  Level FlightAware ADS-B
Sat 12:30:49 AM 40.6000 -80.5567 245° Southwest 414 476 32,000  Level FlightAware ADS-B
Sat 12:32:00 AM 40.5424 -80.7184 245° Southwest 414 476 32,000  Level FlightAware ADS-B
Sat 12:32:31 AM 40.5233 -80.7728 245° Southwest 413 475 32,000 -253 Level Indianapolis Center
Sat 12:36:45 AM 40.3091 -81.3621 245° Southwest 411 473 30,800 -519 Descending FlightAware ADS-B
Sat 12:40:02 AM 40.1493 -81.7962 244° Southwest 393 452 28,100 -555 Descending FlightAware ADS-B
Sat 12:41:37 AM 40.0729 -82.0021 244° Southwest 416 479 28,100 -48 Level FlightAware ADS-B
Sat 12:42:08 AM 40.0461 -82.0722 244° Southwest 417 480 28,000 -27 Descending FlightAware ADS-B
Sat 12:45:21 AM 39.8855 -82.4971 244° Southwest 407 468 28,000  Level FlightAware ADS-B (EGOD)
Sat 12:45:57 AM 39.8571 -82.5739 244° Southwest 407 468 28,000  Level FlightAware ADS-B (EGOD)
Sat 12:46:41 AM 39.8197 -82.6701 244° Southwest 407 468 28,000  Level FlightAware ADS-B (EGOD)
Sat 12:47:22 AM 39.7849 -82.7620 244° Southwest 407 468 28,000  Level FlightAware ADS-B (EGOD)
Sat 12:48:01 AM 39.7528 -82.8452 244° Southwest 407 468 28,000  Level FlightAware ADS-B (EGOD)
Sat 12:52:56 AM 39.5037 -83.4847 243° Southwest 403 464 28,000  Level FlightAware ADS-B
Sat 12:53:35 AM 39.4696 -83.5727 243° Southwest 403 464 28,000  Level FlightAware ADS-B
Sat 12:54:06 AM 39.4432 -83.6391 243° Southwest 402 463 28,000 -37 Level FlightAware ADS-B
Sat 12:56:17 AM 39.3329 -83.9170 243° Southwest 398 458 27,900 -386 Descending FlightAware ADS-B
Sat 12:56:57 AM 39.2983 -84.0033 243° Southwest 417 480 26,900 -1,575 Descending FlightAware ADS-B
Sat 12:57:37 AM 39.2683 -84.0793 243° Southwest 425 489 25,800 -1,455 Descending FlightAware ADS-B
Sat 12:59:42 AM 39.2419 -84.1446 243° Southwest 407 468 22,900 -1,301 Descending FlightAware ADS-B (KCVG)
Sat 01:00:23 AM 39.2419 -84.1446 243° Southwest 403 464 22,200 -966 Descending FlightAware ADS-B (KCVG)
Sat 01:01:09 AM 39.2419 -84.1446 243° Southwest 423 487 21,500 -1,183 Descending FlightAware ADS-B
Sat 01:03:56 AM 38.8761 -84.8392 217° Southwest 377 434 18,000 -1,862 Descending FlightAware ADS-B (KCVG)
Sat 01:04:32 AM 38.8403 -84.8745 218° Southwest 371 427 15,200 -3,371 Descending FlightAware ADS-B (KCVG)
Sat 01:05:25 AM 38.7525 -84.9586 217° Southwest 359 413 13,000 -2,129 Descending FlightAware ADS-B (KCVG)
Sat 01:06:05 AM 38.7339 -84.9764 217° Southwest 356 410 11,900 -619 Descending FlightAware ADS-B (KCVG)
Sat 01:07:31 AM 38.5916 -85.1138 217° Southwest 328 377 11,700 -563 Descending FlightAware ADS-B
Sat 01:09:38 AM 38.4969 -85.3087 247° West 291 335 9,900 -578 Descending FlightAware ADS-B
Sat 01:10:38 AM 38.4659 -85.4020 247° West 269 310 9,900  Level FlightAware ADS-B
Sat 01:10:54 AM 38.4576 -85.4266 244° Southwest 271 312 9,900 -556 Level FlightAware ADS-B (KCVG)
Sat 01:11:32 AM 38.4424 -85.4564 236° Southwest 267 307 9,400 -800 Descending FlightAware ADS-B
Sat 01:12:39 AM 38.3867 -85.5637 237° Southwest 260 299 8,500 -897 Descending FlightAware ADS-B
Sat 01:13:19 AM 38.3621 -85.6108 237° Southwest 255 293 7,800 -800 Descending FlightAware ADS-B
Sat 01:14:39 AM 38.3088 -85.7147 237° Southwest 253 291 6,900 -723 Descending FlightAware ADS-B
Sat 01:15:40 AM 38.2692 -85.7905 236° Southwest 251 289 6,100 -600 Descending FlightAware ADS-B
Sat 01:16:29 AM 38.2392 -85.8466 224° Southwest 243 280 5,800 -958 Descending FlightAware ADS-B
Sat 01:17:39 AM 38.1611 -85.8466 165° South 247 284 4,200 -905 Descending FlightAware ADS-B
Sat 01:18:35 AM 38.1003 -85.8264 165° South 245 282 3,900 -550 Descending FlightAware ADS-B
Sat 01:19:39 AM 38.0296 -85.8023 165° South 243 280 3,100 -484 Descending FlightAware ADS-B
Sat 01:20:39 AM 37.9738 -85.7714 118° Southeast 238 274 2,900 -300 Descending FlightAware ADS-B
Sat 01:21:39 AM 37.9965 -85.7044 22° Northeast 211 243 2,500 -298 Descending FlightAware ADS-B
Sat 01:22:40 AM 38.0474 -85.7030 342° North 177 204 2,300 -400 Descending FlightAware ADS-B
Sat 01:23:39 AM 38.0912 -85.7167 346° North 144 166 1,700 -667 Descending FlightAware ADS-B
Sat 01:24:37 AM 38.0962 -85.7184 346° North 140 161 1,000 -600 Descending FlightAware ADS-B
Sat 01:25:09 AM 38.1500 -85.7333 346° North 136 157 800 -375 Descending Louisville TRACON

Login

Don't have an account? Register now (free) for customized features, flight alerts, and more!